sensor_id;sensor_type;location;lat;lon;timestamp;temperature;humidity
49855;DHT22;35752;52.164;21.244;2022-07-23T00:01:19;20.40;99.90
49855;DHT22;35752;52.164;21.244;2022-07-23T00:03:45;20.40;99.90
49855;DHT22;35752;52.164;21.244;2022-07-23T00:06:10;20.30;99.90
49855;DHT22;35752;52.164;21.244;2022-07-23T00:08:36;20.30;99.90
49855;DHT22;35752;52.164;21.244;2022-07-23T00:11:02;20.20;99.90
49855;DHT22;35752;52.164;21.244;2022-07-23T00:13:28;20.20;99.90
49855;DHT22;35752;52.164;21.244;2022-07-23T00:15:53;20.20;99.90
49855;DHT22;35752;52.164;21.244;2022-07-23T00:18:19;20.10;99.90
49855;DHT22;35752;52.164;21.244;2022-07-23T00:20:45;20.10;99.90
49855;DHT22;35752;52.164;21.244;2022-07-23T00:23:11;20.10;99.90
49855;DHT22;35752;52.164;21.244;2022-07-23T00:25:36;20.00;99.90
49855;DHT22;35752;52.164;21.244;2022-07-23T00:28:02;20.00;99.90
49855;DHT22;35752;52.164;21.244;2022-07-23T00:30:29;20.00;99.90
49855;DHT22;35752;52.164;21.244;2022-07-23T00:32:57;20.00;99.90
49855;DHT22;35752;52.164;21.244;2022-07-23T00:35:25;20.00;99.90
49855;DHT22;35752;52.164;21.244;2022-07-23T00:37:51;19.90;99.90
49855;DHT22;35752;52.164;21.244;2022-07-23T00:40:17;19.80;99.90
49855;DHT22;35752;52.164;21.244;2022-07-23T00:55:24;19.70;99.90
49855;DHT22;35752;52.164;21.244;2022-07-23T00:57:50;19.40;99.90
49855;DHT22;35752;52.164;21.244;2022-07-23T01:00:16;19.50;99.90
49855;DHT22;35752;52.164;21.244;2022-07-23T01:02:42;19.50;99.90
49855;DHT22;35752;52.164;21.244;2022-07-23T01:05:09;19.40;99.90
49855;DHT22;35752;52.164;21.244;2022-07-23T01:07:35;19.50;99.90
49855;DHT22;35752;52.164;21.244;2022-07-23T01:10:02;19.40;99.90
49855;DHT22;35752;52.164;21.244;2022-07-23T01:12:28;19.50;99.90
49855;DHT22;35752;52.164;21.244;2022-07-23T01:14:59;19.40;99.90
49855;DHT22;35752;52.164;21.244;2022-07-23T01:17:25;19.20;99.90
49855;DHT22;35752;52.164;21.244;2022-07-23T01:19:51;19.30;99.90
49855;DHT22;35752;52.164;21.244;2022-07-23T01:22:19;19.20;99.90
49855;DHT22;35752;52.164;21.244;2022-07-23T01:24:45;19.20;99.90
49855;DHT22;35752;52.164;21.244;2022-07-23T01:27:11;19.10;99.90
49855;DHT22;35752;52.164;21.244;2022-07-23T01:29:38;19.10;99.90
49855;DHT22;35752;52.164;21.244;2022-07-23T01:32:04;19.10;99.90
49855;DHT22;35752;52.164;21.244;2022-07-23T01:34:30;19.20;99.90
49855;DHT22;35752;52.164;21.244;2022-07-23T01:36:56;19.20;99.90
49855;DHT22;35752;52.164;21.244;2022-07-23T01:39:21;19.20;99.90
49855;DHT22;35752;52.164;21.244;2022-07-23T01:41:47;19.10;99.90
49855;DHT22;35752;52.164;21.244;2022-07-23T01:44:13;19.10;99.90
49855;DHT22;35752;52.164;21.244;2022-07-23T01:46:39;19.10;99.90
49855;DHT22;35752;52.164;21.244;2022-07-23T01:49:04;19.00;99.90
49855;DHT22;35752;52.164;21.244;2022-07-23T01:51:30;18.90;99.90
49855;DHT22;35752;52.164;21.244;2022-07-23T01:53:56;18.80;99.90
49855;DHT22;35752;52.164;21.244;2022-07-23T01:56:21;18.90;99.90
49855;DHT22;35752;52.164;21.244;2022-07-23T01:58:50;18.90;99.90
49855;DHT22;35752;52.164;21.244;2022-07-23T02:01:16;18.80;99.90
49855;DHT22;35752;52.164;21.244;2022-07-23T02:03:42;18.80;99.90
49855;DHT22;35752;52.164;21.244;2022-07-23T02:06:08;18.80;99.90
49855;DHT22;35752;52.164;21.244;2022-07-23T02:08:33;18.80;99.90
49855;DHT22;35752;52.164;21.244;2022-07-23T02:10:59;18.80;99.90
49855;DHT22;35752;52.164;21.244;2022-07-23T02:13:25;18.80;99.90
49855;DHT22;35752;52.164;21.244;2022-07-23T02:15:50;18.80;99.90
49855;DHT22;35752;52.164;21.244;2022-07-23T02:18:16;18.80;99.90
49855;DHT22;35752;52.164;21.244;2022-07-23T02:20:42;18.80;99.90
49855;DHT22;35752;52.164;21.244;2022-07-23T02:23:08;18.80;99.90
49855;DHT22;35752;52.164;21.244;2022-07-23T02:25:34;18.80;99.90
49855;DHT22;35752;52.164;21.244;2022-07-23T02:27:59;18.80;99.90
49855;DHT22;35752;52.164;21.244;2022-07-23T02:30:25;18.80;99.90
49855;DHT22;35752;52.164;21.244;2022-07-23T02:32:51;18.70;99.90
49855;DHT22;35752;52.164;21.244;2022-07-23T02:35:17;18.70;99.90
49855;DHT22;35752;52.164;21.244;2022-07-23T02:37:42;18.70;99.90
49855;DHT22;35752;52.164;21.244;2022-07-23T02:40:08;18.60;99.90
49855;DHT22;35752;52.164;21.244;2022-07-23T02:42:35;18.60;99.90
49855;DHT22;35752;52.164;21.244;2022-07-23T02:45:01;18.50;99.90
49855;DHT22;35752;52.164;21.244;2022-07-23T02:47:26;18.50;99.90
49855;DHT22;35752;52.164;21.244;2022-07-23T02:49:52;18.50;99.90
49855;DHT22;35752;52.164;21.244;2022-07-23T02:52:18;18.50;99.90
49855;DHT22;35752;52.164;21.244;2022-07-23T02:54:43;18.60;99.90
49855;DHT22;35752;52.164;21.244;2022-07-23T02:57:09;18.60;99.90
49855;DHT22;35752;52.164;21.244;2022-07-23T02:59:34;18.60;99.90
49855;DHT22;35752;52.164;21.244;2022-07-23T03:02:00;18.60;99.90
49855;DHT22;35752;52.164;21.244;2022-07-23T03:04:26;18.60;99.90
49855;DHT22;35752;52.164;21.244;2022-07-23T03:06:52;18.60;99.90
49855;DHT22;35752;52.164;21.244;2022-07-23T03:09:17;18.60;99.90
49855;DHT22;35752;52.164;21.244;2022-07-23T03:11:43;18.60;99.90
49855;DHT22;35752;52.164;21.244;2022-07-23T03:14:09;18.60;99.90
49855;DHT22;35752;52.164;21.244;2022-07-23T03:16:34;18.60;99.90
49855;DHT22;35752;52.164;21.244;2022-07-23T03:19:00;18.60;99.90
49855;DHT22;35752;52.164;21.244;2022-07-23T03:21:26;18.70;99.90
49855;DHT22;35752;52.164;21.244;2022-07-23T03:23:52;18.70;99.90
49855;DHT22;35752;52.164;21.244;2022-07-23T03:26:17;18.70;99.90
49855;DHT22;35752;52.164;21.244;2022-07-23T03:28:43;18.70;99.90
49855;DHT22;35752;52.164;21.244;2022-07-23T03:31:09;18.70;99.90
49855;DHT22;35752;52.164;21.244;2022-07-23T03:33:34;18.70;99.90
49855;DHT22;35752;52.164;21.244;2022-07-23T03:36:00;18.70;99.90
49855;DHT22;35752;52.164;21.244;2022-07-23T03:38:26;18.80;99.90
49855;DHT22;35752;52.164;21.244;2022-07-23T03:40:51;18.80;99.90
49855;DHT22;35752;52.164;21.244;2022-07-23T03:43:17;19.00;99.90
49855;DHT22;35752;52.164;21.244;2022-07-23T03:45:43;19.00;99.90
49855;DHT22;35752;52.164;21.244;2022-07-23T03:48:08;19.10;99.90
49855;DHT22;35752;52.164;21.244;2022-07-23T03:50:34;19.10;99.90
49855;DHT22;35752;52.164;21.244;2022-07-23T03:53:00;19.20;99.90
49855;DHT22;35752;52.164;21.244;2022-07-23T03:55:26;19.30;99.90
49855;DHT22;35752;52.164;21.244;2022-07-23T03:57:51;19.30;99.90
49855;DHT22;35752;52.164;21.244;2022-07-23T04:00:17;19.40;99.90
49855;DHT22;35752;52.164;21.244;2022-07-23T04:02:43;19.40;99.90
49855;DHT22;35752;52.164;21.244;2022-07-23T04:05:08;19.40;99.90
49855;DHT22;35752;52.164;21.244;2022-07-23T04:07:34;19.60;99.90
49855;DHT22;35752;52.164;21.244;2022-07-23T04:10:00;20.30;99.90
49855;DHT22;35752;52.164;21.244;2022-07-23T04:12:26;21.00;99.90
49855;DHT22;35752;52.164;21.244;2022-07-23T04:14:51;21.60;99.90
49855;DHT22;35752;52.164;21.244;2022-07-23T04:17:17;22.10;99.90
49855;DHT22;35752;52.164;21.244;2022-07-23T04:19:43;22.90;99.90
49855;DHT22;35752;52.164;21.244;2022-07-23T04:22:11;23.30;99.90
49855;DHT22;35752;52.164;21.244;2022-07-23T04:24:38;23.70;99.90
49855;DHT22;35752;52.164;21.244;2022-07-23T04:27:04;24.20;99.90
49855;DHT22;35752;52.164;21.244;2022-07-23T04:29:29;24.60;99.90
49855;DHT22;35752;52.164;21.244;2022-07-23T04:31:55;24.80;99.90
49855;DHT22;35752;52.164;21.244;2022-07-23T04:34:21;25.10;99.90
49855;DHT22;35752;52.164;21.244;2022-07-23T04:36:47;25.40;99.90
49855;DHT22;35752;52.164;21.244;2022-07-23T04:39:13;25.70;99.90
49855;DHT22;35752;52.164;21.244;2022-07-23T04:41:39;26.00;99.90
49855;DHT22;35752;52.164;21.244;2022-07-23T04:44:04;26.10;99.90
49855;DHT22;35752;52.164;21.244;2022-07-23T04:46:30;26.50;99.90
49855;DHT22;35752;52.164;21.244;2022-07-23T04:48:56;26.60;99.90
49855;DHT22;35752;52.164;21.244;2022-07-23T04:51:21;26.70;99.90
49855;DHT22;35752;52.164;21.244;2022-07-23T04:53:47;26.40;99.90
49855;DHT22;35752;52.164;21.244;2022-07-23T04:56:13;25.80;99.90
49855;DHT22;35752;52.164;21.244;2022-07-23T04:58:38;25.50;99.90
49855;DHT22;35752;52.164;21.244;2022-07-23T05:01:04;24.90;99.90
49855;DHT22;35752;52.164;21.244;2022-07-23T05:03:30;24.70;99.90
49855;DHT22;35752;52.164;21.244;2022-07-23T05:05:56;24.30;99.90
49855;DHT22;35752;52.164;21.244;2022-07-23T05:08:22;24.10;99.90
49855;DHT22;35752;52.164;21.244;2022-07-23T05:10:47;23.90;99.90
49855;DHT22;35752;52.164;21.244;2022-07-23T05:13:17;23.80;99.90
49855;DHT22;35752;52.164;21.244;2022-07-23T05:15:43;23.80;99.90
49855;DHT22;35752;52.164;21.244;2022-07-23T05:18:09;23.70;99.90
49855;DHT22;35752;52.164;21.244;2022-07-23T05:20:35;23.70;99.90
49855;DHT22;35752;52.164;21.244;2022-07-23T05:23:01;23.70;99.90
49855;DHT22;35752;52.164;21.244;2022-07-23T05:25:27;23.70;99.90
49855;DHT22;35752;52.164;21.244;2022-07-23T05:27:53;23.80;99.90
49855;DHT22;35752;52.164;21.244;2022-07-23T05:30:18;23.80;99.90
49855;DHT22;35752;52.164;21.244;2022-07-23T05:32:44;23.90;99.90
49855;DHT22;35752;52.164;21.244;2022-07-23T05:35:10;23.90;99.90
49855;DHT22;35752;52.164;21.244;2022-07-23T05:37:36;24.00;99.90
49855;DHT22;35752;52.164;21.244;2022-07-23T05:40:07;24.00;99.90
49855;DHT22;35752;52.164;21.244;2022-07-23T05:42:36;24.00;99.90
49855;DHT22;35752;52.164;21.244;2022-07-23T05:45:03;24.10;99.90
49855;DHT22;35752;52.164;21.244;2022-07-23T05:47:38;24.10;99.90
49855;DHT22;35752;52.164;21.244;2022-07-23T05:50:04;24.20;99.90
49855;DHT22;35752;52.164;21.244;2022-07-23T05:52:30;24.30;99.90
49855;DHT22;35752;52.164;21.244;2022-07-23T05:54:55;24.40;99.90
49855;DHT22;35752;52.164;21.244;2022-07-23T05:57:21;24.50;99.90
49855;DHT22;35752;52.164;21.244;2022-07-23T05:59:47;24.60;99.90
49855;DHT22;35752;52.164;21.244;2022-07-23T06:02:12;24.70;99.90
49855;DHT22;35752;52.164;21.244;2022-07-23T06:04:38;24.70;99.90
49855;DHT22;35752;52.164;21.244;2022-07-23T06:07:03;24.90;99.90
49855;DHT22;35752;52.164;21.244;2022-07-23T06:09:29;24.90;99.90
49855;DHT22;35752;52.164;21.244;2022-07-23T06:11:55;25.10;99.90
49855;DHT22;35752;52.164;21.244;2022-07-23T06:14:20;25.10;99.90
49855;DHT22;35752;52.164;21.244;2022-07-23T06:16:46;25.20;99.90
49855;DHT22;35752;52.164;21.244;2022-07-23T06:19:12;25.30;99.90
49855;DHT22;35752;52.164;21.244;2022-07-23T06:21:37;25.30;99.90
49855;DHT22;35752;52.164;21.244;2022-07-23T06:24:03;25.40;99.90
49855;DHT22;35752;52.164;21.244;2022-07-23T06:26:29;25.50;99.90
49855;DHT22;35752;52.164;21.244;2022-07-23T06:28:55;25.50;99.90
49855;DHT22;35752;52.164;21.244;2022-07-23T06:31:20;25.70;99.90
49855;DHT22;35752;52.164;21.244;2022-07-23T06:33:46;25.70;99.90
49855;DHT22;35752;52.164;21.244;2022-07-23T06:36:11;25.90;99.90
49855;DHT22;35752;52.164;21.244;2022-07-23T06:38:37;26.00;99.90
49855;DHT22;35752;52.164;21.244;2022-07-23T06:41:03;26.10;99.90
49855;DHT22;35752;52.164;21.244;2022-07-23T06:43:30;26.20;99.90
49855;DHT22;35752;52.164;21.244;2022-07-23T06:45:56;26.30;99.90
49855;DHT22;35752;52.164;21.244;2022-07-23T06:48:22;26.30;99.90
49855;DHT22;35752;52.164;21.244;2022-07-23T06:50:48;26.30;99.90
49855;DHT22;35752;52.164;21.244;2022-07-23T06:53:14;26.40;99.90
49855;DHT22;35752;52.164;21.244;2022-07-23T06:55:39;26.40;99.90
49855;DHT22;35752;52.164;21.244;2022-07-23T06:58:05;26.60;99.90
49855;DHT22;35752;52.164;21.244;2022-07-23T07:00:31;26.60;99.90
49855;DHT22;35752;52.164;21.244;2022-07-23T07:02:58;26.60;99.90
49855;DHT22;35752;52.164;21.244;2022-07-23T07:05:24;26.60;99.90
49855;DHT22;35752;52.164;21.244;2022-07-23T07:07:54;26.80;99.90
49855;DHT22;35752;52.164;21.244;2022-07-23T07:10:20;26.90;99.90
49855;DHT22;35752;52.164;21.244;2022-07-23T07:12:45;26.90;99.90
49855;DHT22;35752;52.164;21.244;2022-07-23T07:15:11;27.00;99.90
49855;DHT22;35752;52.164;21.244;2022-07-23T07:17:37;27.00;99.90
49855;DHT22;35752;52.164;21.244;2022-07-23T07:20:04;27.00;99.90
49855;DHT22;35752;52.164;21.244;2022-07-23T07:22:30;27.10;99.90
49855;DHT22;35752;52.164;21.244;2022-07-23T07:24:55;27.10;99.90
49855;DHT22;35752;52.164;21.244;2022-07-23T07:27:21;27.10;99.90
49855;DHT22;35752;52.164;21.244;2022-07-23T07:29:46;27.20;99.90
49855;DHT22;35752;52.164;21.244;2022-07-23T07:32:12;27.30;99.90
49855;DHT22;35752;52.164;21.244;2022-07-23T07:34:38;27.40;99.90
49855;DHT22;35752;52.164;21.244;2022-07-23T07:37:03;27.40;99.90
49855;DHT22;35752;52.164;21.244;2022-07-23T07:39:29;27.50;99.90
49855;DHT22;35752;52.164;21.244;2022-07-23T07:41:55;27.60;99.90
49855;DHT22;35752;52.164;21.244;2022-07-23T07:44:20;27.60;99.90
49855;DHT22;35752;52.164;21.244;2022-07-23T07:46:46;27.80;99.60
49855;DHT22;35752;52.164;21.244;2022-07-23T07:49:12;28.00;99.40
49855;DHT22;35752;52.164;21.244;2022-07-23T07:51:37;28.00;99.20
49855;DHT22;35752;52.164;21.244;2022-07-23T07:54:03;28.10;99.00
49855;DHT22;35752;52.164;21.244;2022-07-23T07:56:29;28.30;98.20
49855;DHT22;35752;52.164;21.244;2022-07-23T07:58:55;28.40;97.70
49855;DHT22;35752;52.164;21.244;2022-07-23T08:01:21;28.50;97.40
49855;DHT22;35752;52.164;21.244;2022-07-23T08:03:46;28.60;97.10
49855;DHT22;35752;52.164;21.244;2022-07-23T08:06:12;28.60;96.40
49855;DHT22;35752;52.164;21.244;2022-07-23T08:08:38;28.50;96.50
49855;DHT22;35752;52.164;21.244;2022-07-23T08:11:04;28.60;96.70
49855;DHT22;35752;52.164;21.244;2022-07-23T08:13:29;28.70;96.40
49855;DHT22;35752;52.164;21.244;2022-07-23T08:15:55;28.90;95.20
49855;DHT22;35752;52.164;21.244;2022-07-23T08:18:21;28.60;93.90
49855;DHT22;35752;52.164;21.244;2022-07-23T08:20:47;28.80;95.40
49855;DHT22;35752;52.164;21.244;2022-07-23T08:23:12;29.00;95.00
49855;DHT22;35752;52.164;21.244;2022-07-23T08:25:40;29.00;94.90
49855;DHT22;35752;52.164;21.244;2022-07-23T08:28:09;28.90;93.90
49855;DHT22;35752;52.164;21.244;2022-07-23T08:30:35;28.90;94.60
49855;DHT22;35752;52.164;21.244;2022-07-23T08:33:09;29.00;93.90
49855;DHT22;35752;52.164;21.244;2022-07-23T08:35:46;29.20;93.70
49855;DHT22;35752;52.164;21.244;2022-07-23T08:38:14;29.30;92.70
49855;DHT22;35752;52.164;21.244;2022-07-23T08:40:45;29.20;93.40
49855;DHT22;35752;52.164;21.244;2022-07-23T08:43:14;29.30;93.00
49855;DHT22;35752;52.164;21.244;2022-07-23T08:45:45;29.30;93.40
49855;DHT22;35752;52.164;21.244;2022-07-23T08:48:21;29.30;93.20
49855;DHT22;35752;52.164;21.244;2022-07-23T08:50:53;29.30;93.10
49855;DHT22;35752;52.164;21.244;2022-07-23T08:53:23;29.40;92.00
49855;DHT22;35752;52.164;21.244;2022-07-23T08:55:51;29.40;90.40
49855;DHT22;35752;52.164;21.244;2022-07-23T08:58:17;29.40;91.10
49855;DHT22;35752;52.164;21.244;2022-07-23T09:00:44;29.50;90.00
49855;DHT22;35752;52.164;21.244;2022-07-23T09:03:22;29.60;91.60
49855;DHT22;35752;52.164;21.244;2022-07-23T09:05:50;29.70;90.30
49855;DHT22;35752;52.164;21.244;2022-07-23T09:08:18;29.90;89.40
49855;DHT22;35752;52.164;21.244;2022-07-23T09:10:59;29.90;88.50
49855;DHT22;35752;52.164;21.244;2022-07-23T09:13:41;30.00;88.50
49855;DHT22;35752;52.164;21.244;2022-07-23T09:16:17;30.10;86.80
49855;DHT22;35752;52.164;21.244;2022-07-23T09:18:49;29.90;87.40
49855;DHT22;35752;52.164;21.244;2022-07-23T09:26:43;30.10;83.20
49855;DHT22;35752;52.164;21.244;2022-07-23T09:29:20;29.90;81.00
49855;DHT22;35752;52.164;21.244;2022-07-23T09:31:50;29.90;83.60
49855;DHT22;35752;52.164;21.244;2022-07-23T09:36:42;30.00;79.80
49855;DHT22;35752;52.164;21.244;2022-07-23T09:39:09;30.10;79.00
49855;DHT22;35752;52.164;21.244;2022-07-23T09:41:41;30.10;80.40
49855;DHT22;35752;52.164;21.244;2022-07-23T09:44:09;30.20;80.20
49855;DHT22;35752;52.164;21.244;2022-07-23T09:46:35;30.20;79.50
49855;DHT22;35752;52.164;21.244;2022-07-23T09:49:12;30.20;77.50
49855;DHT22;35752;52.164;21.244;2022-07-23T09:54:25;30.10;77.20
49855;DHT22;35752;52.164;21.244;2022-07-23T09:56:53;30.20;79.60
49855;DHT22;35752;52.164;21.244;2022-07-23T09:59:23;30.30;80.50
49855;DHT22;35752;52.164;21.244;2022-07-23T10:01:50;30.10;78.70
49855;DHT22;35752;52.164;21.244;2022-07-23T10:04:18;30.10;78.60
49855;DHT22;35752;52.164;21.244;2022-07-23T10:06:43;30.00;78.80
49855;DHT22;35752;52.164;21.244;2022-07-23T10:09:12;30.00;79.30
49855;DHT22;35752;52.164;21.244;2022-07-23T10:11:37;30.00;76.10
49855;DHT22;35752;52.164;21.244;2022-07-23T10:14:04;30.00;76.90
49855;DHT22;35752;52.164;21.244;2022-07-23T10:16:32;30.10;76.80
49855;DHT22;35752;52.164;21.244;2022-07-23T10:18:58;30.10;77.90
49855;DHT22;35752;52.164;21.244;2022-07-23T10:22:09;30.10;79.60
49855;DHT22;35752;52.164;21.244;2022-07-23T10:29:43;30.10;78.20
49855;DHT22;35752;52.164;21.244;2022-07-23T10:32:21;30.20;79.60
49855;DHT22;35752;52.164;21.244;2022-07-23T10:34:57;30.30;78.80
49855;DHT22;35752;52.164;21.244;2022-07-23T10:37:42;30.30;77.40
49855;DHT22;35752;52.164;21.244;2022-07-23T10:42:43;30.20;76.90
49855;DHT22;35752;52.164;21.244;2022-07-23T10:47:53;30.40;77.60
49855;DHT22;35752;52.164;21.244;2022-07-23T10:50:30;30.40;76.60
49855;DHT22;35752;52.164;21.244;2022-07-23T10:58:00;30.70;77.30
49855;DHT22;35752;52.164;21.244;2022-07-23T11:00:28;30.70;75.50
49855;DHT22;35752;52.164;21.244;2022-07-23T11:02:59;30.60;75.60
49855;DHT22;35752;52.164;21.244;2022-07-23T11:05:42;30.70;76.40
49855;DHT22;35752;52.164;21.244;2022-07-23T11:13:32;31.00;74.30
49855;DHT22;35752;52.164;21.244;2022-07-23T11:34:41;30.90;74.20
49855;DHT22;35752;52.164;21.244;2022-07-23T11:37:10;30.90;72.80
49855;DHT22;35752;52.164;21.244;2022-07-23T11:39:36;30.90;72.40
49855;DHT22;35752;52.164;21.244;2022-07-23T11:42:04;30.90;73.90
49855;DHT22;35752;52.164;21.244;2022-07-23T11:44:37;31.00;73.50
49855;DHT22;35752;52.164;21.244;2022-07-23T11:47:08;31.00;72.50
49855;DHT22;35752;52.164;21.244;2022-07-23T11:49:34;31.20;73.10
49855;DHT22;35752;52.164;21.244;2022-07-23T11:52:09;31.20;73.20
49855;DHT22;35752;52.164;21.244;2022-07-23T11:54:37;31.20;74.00
49855;DHT22;35752;52.164;21.244;2022-07-23T11:57:03;31.30;73.00
49855;DHT22;35752;52.164;21.244;2022-07-23T11:59:32;31.30;72.20
49855;DHT22;35752;52.164;21.244;2022-07-23T12:02:05;31.30;73.70
49855;DHT22;35752;52.164;21.244;2022-07-23T12:04:41;31.30;73.50
49855;DHT22;35752;52.164;21.244;2022-07-23T12:10:10;31.30;72.00
49855;DHT22;35752;52.164;21.244;2022-07-23T12:13:03;31.30;70.80
49855;DHT22;35752;52.164;21.244;2022-07-23T12:15:31;31.40;73.40
49855;DHT22;35752;52.164;21.244;2022-07-23T12:18:02;31.40;72.10
49855;DHT22;35752;52.164;21.244;2022-07-23T12:20:36;31.40;70.00
49855;DHT22;35752;52.164;21.244;2022-07-23T12:23:05;31.40;70.70
49855;DHT22;35752;52.164;21.244;2022-07-23T12:25:37;31.40;70.60
49855;DHT22;35752;52.164;21.244;2022-07-23T12:28:07;31.40;71.40
49855;DHT22;35752;52.164;21.244;2022-07-23T12:33:06;31.60;69.70
49855;DHT22;35752;52.164;21.244;2022-07-23T12:35:43;31.70;71.50
49855;DHT22;35752;52.164;21.244;2022-07-23T12:38:15;31.60;70.20
49855;DHT22;35752;52.164;21.244;2022-07-23T12:43:18;31.80;70.10
49855;DHT22;35752;52.164;21.244;2022-07-23T12:48:19;32.10;69.60
49855;DHT22;35752;52.164;21.244;2022-07-23T12:53:49;32.50;69.10
49855;DHT22;35752;52.164;21.244;2022-07-23T12:59:18;32.50;70.10
49855;DHT22;35752;52.164;21.244;2022-07-23T13:01:45;32.40;68.50
49855;DHT22;35752;52.164;21.244;2022-07-23T13:04:20;32.20;68.40
49855;DHT22;35752;52.164;21.244;2022-07-23T13:06:47;31.90;68.00
49855;DHT22;35752;52.164;21.244;2022-07-23T13:09:22;31.90;68.50
49855;DHT22;35752;52.164;21.244;2022-07-23T13:11:49;31.90;69.20
49855;DHT22;35752;52.164;21.244;2022-07-23T13:14:17;31.90;68.90
49855;DHT22;35752;52.164;21.244;2022-07-23T13:16:43;31.70;70.50
49855;DHT22;35752;52.164;21.244;2022-07-23T13:19:10;31.60;69.80
49855;DHT22;35752;52.164;21.244;2022-07-23T13:21:36;31.60;70.00
49855;DHT22;35752;52.164;21.244;2022-07-23T13:24:02;31.60;71.10
49855;DHT22;35752;52.164;21.244;2022-07-23T13:26:27;31.60;71.70
49855;DHT22;35752;52.164;21.244;2022-07-23T13:28:53;31.60;69.30
49855;DHT22;35752;52.164;21.244;2022-07-23T13:31:20;31.60;69.20
49855;DHT22;35752;52.164;21.244;2022-07-23T13:33:45;31.60;69.30
49855;DHT22;35752;52.164;21.244;2022-07-23T13:36:12;31.70;70.10
49855;DHT22;35752;52.164;21.244;2022-07-23T13:38:38;31.90;70.10
49855;DHT22;35752;52.164;21.244;2022-07-23T13:41:04;32.10;69.80
49855;DHT22;35752;52.164;21.244;2022-07-23T13:43:31;32.20;68.80
49855;DHT22;35752;52.164;21.244;2022-07-23T13:45:57;32.30;70.00
49855;DHT22;35752;52.164;21.244;2022-07-23T13:48:23;32.40;68.30
49855;DHT22;35752;52.164;21.244;2022-07-23T13:50:49;32.60;69.80
49855;DHT22;35752;52.164;21.244;2022-07-23T13:53:18;32.60;68.20
49855;DHT22;35752;52.164;21.244;2022-07-23T13:55:45;32.50;68.40
49855;DHT22;35752;52.164;21.244;2022-07-23T13:58:12;32.40;67.90
49855;DHT22;35752;52.164;21.244;2022-07-23T14:00:40;32.40;68.20
49855;DHT22;35752;52.164;21.244;2022-07-23T14:03:06;32.40;68.90
49855;DHT22;35752;52.164;21.244;2022-07-23T14:05:32;32.40;68.50
49855;DHT22;35752;52.164;21.244;2022-07-23T14:07:58;32.40;69.30
49855;DHT22;35752;52.164;21.244;2022-07-23T14:10:24;32.30;69.30
49855;DHT22;35752;52.164;21.244;2022-07-23T14:12:52;32.30;68.90
49855;DHT22;35752;52.164;21.244;2022-07-23T14:15:20;32.20;68.80
49855;DHT22;35752;52.164;21.244;2022-07-23T14:17:46;32.20;68.70
49855;DHT22;35752;52.164;21.244;2022-07-23T14:20:13;32.20;69.30
49855;DHT22;35752;52.164;21.244;2022-07-23T14:22:40;32.20;69.20
49855;DHT22;35752;52.164;21.244;2022-07-23T14:25:07;32.10;69.60
49855;DHT22;35752;52.164;21.244;2022-07-23T14:27:33;31.90;68.80
49855;DHT22;35752;52.164;21.244;2022-07-23T14:29:59;31.70;68.90
49855;DHT22;35752;52.164;21.244;2022-07-23T14:32:26;31.60;71.50
49855;DHT22;35752;52.164;21.244;2022-07-23T14:35:05;31.30;71.80
49855;DHT22;35752;52.164;21.244;2022-07-23T14:37:31;31.20;70.20
49855;DHT22;35752;52.164;21.244;2022-07-23T14:39:57;31.10;70.50
49855;DHT22;35752;52.164;21.244;2022-07-23T14:42:23;31.00;72.30
49855;DHT22;35752;52.164;21.244;2022-07-23T14:44:49;31.00;73.30
49855;DHT22;35752;52.164;21.244;2022-07-23T14:47:15;30.80;73.90
49855;DHT22;35752;52.164;21.244;2022-07-23T14:49:40;30.70;72.40
49855;DHT22;35752;52.164;21.244;2022-07-23T14:52:06;30.60;72.90
49855;DHT22;35752;52.164;21.244;2022-07-23T14:54:33;30.50;74.00
49855;DHT22;35752;52.164;21.244;2022-07-23T14:56:59;30.30;74.20
49855;DHT22;35752;52.164;21.244;2022-07-23T14:59:26;30.20;76.40
49855;DHT22;35752;52.164;21.244;2022-07-23T15:01:52;29.80;77.40
49855;DHT22;35752;52.164;21.244;2022-07-23T15:04:18;28.80;81.20
49855;DHT22;35752;52.164;21.244;2022-07-23T15:06:44;28.10;84.30
49855;DHT22;35752;52.164;21.244;2022-07-23T15:09:10;27.50;87.00
49855;DHT22;35752;52.164;21.244;2022-07-23T15:11:36;26.80;89.30
49855;DHT22;35752;52.164;21.244;2022-07-23T15:14:06;26.40;90.60
49855;DHT22;35752;52.164;21.244;2022-07-23T15:16:32;26.10;91.50
49855;DHT22;35752;52.164;21.244;2022-07-23T15:18:58;25.80;92.00
49855;DHT22;35752;52.164;21.244;2022-07-23T15:21:24;25.70;92.30
49855;DHT22;35752;52.164;21.244;2022-07-23T15:23:50;25.30;92.90
49855;DHT22;35752;52.164;21.244;2022-07-23T15:26:17;25.20;93.70
49855;DHT22;35752;52.164;21.244;2022-07-23T15:28:43;24.90;94.70
49855;DHT22;35752;52.164;21.244;2022-07-23T15:31:09;24.70;96.10
49855;DHT22;35752;52.164;21.244;2022-07-23T15:33:35;24.40;97.90
49855;DHT22;35752;52.164;21.244;2022-07-23T15:36:02;24.30;99.90
49855;DHT22;35752;52.164;21.244;2022-07-23T15:38:28;24.10;99.90
49855;DHT22;35752;52.164;21.244;2022-07-23T15:40:54;23.80;99.90
49855;DHT22;35752;52.164;21.244;2022-07-23T15:43:21;23.70;99.90
49855;DHT22;35752;52.164;21.244;2022-07-23T15:45:48;23.50;99.90
49855;DHT22;35752;52.164;21.244;2022-07-23T15:48:14;23.30;99.90
49855;DHT22;35752;52.164;21.244;2022-07-23T15:50:39;23.20;99.90
49855;DHT22;35752;52.164;21.244;2022-07-23T15:53:05;22.80;99.90
49855;DHT22;35752;52.164;21.244;2022-07-23T15:55:31;22.50;99.90
49855;DHT22;35752;52.164;21.244;2022-07-23T15:57:57;22.40;99.90
49855;DHT22;35752;52.164;21.244;2022-07-23T16:00:22;22.20;99.90
49855;DHT22;35752;52.164;21.244;2022-07-23T16:02:48;21.80;99.90
49855;DHT22;35752;52.164;21.244;2022-07-23T16:05:14;21.80;99.90
49855;DHT22;35752;52.164;21.244;2022-07-23T16:07:59;21.70;99.90
49855;DHT22;35752;52.164;21.244;2022-07-23T16:10:25;21.50;99.90
49855;DHT22;35752;52.164;21.244;2022-07-23T16:12:51;21.50;99.90
49855;DHT22;35752;52.164;21.244;2022-07-23T16:15:17;21.60;99.90
49855;DHT22;35752;52.164;21.244;2022-07-23T16:17:42;21.50;99.90
49855;DHT22;35752;52.164;21.244;2022-07-23T16:20:09;21.50;99.90
49855;DHT22;35752;52.164;21.244;2022-07-23T16:22:35;21.40;99.90
49855;DHT22;35752;52.164;21.244;2022-07-23T16:25:01;21.40;99.90
49855;DHT22;35752;52.164;21.244;2022-07-23T16:27:26;21.40;99.90
49855;DHT22;35752;52.164;21.244;2022-07-23T16:29:52;21.40;99.90
49855;DHT22;35752;52.164;21.244;2022-07-23T16:32:18;21.40;99.90
49855;DHT22;35752;52.164;21.244;2022-07-23T16:34:44;21.30;99.90